Bourbonnais, IL (60914)

6:43 PM CDT on April 21, 2015 (GMT -0500)
Claire Drive Willowbrook | | Change Station
CLOSE
Current Station
Personal Weather Station
Location: Bourbonnais, IL
Elevation: 679 ft
Nearby Weather Stations
Active Advisory: Wind Advisory

Elev 679 ft 41.17 °N, 87.83 °W | Updated 14 minutes ago

Overcast
Overcast
51.3 °F
Feels Like 51.3 °F
N
17.6
Wind Variable Wind from West

Today
High -- | Low -- °F
--% Chance of Precip.
Yesterday
High -- | Low -- °F
Precip. -- in
6:03 AM 7:37 PM
Waxing Crescent, 13% visible
Pressure 29.69 in
Visibility 10.0 miles
Clouds Scattered Clouds 6500 ft
Scattered Clouds 8000 ft
Overcast 9500 ft
Dew Point 37 °F
Humidity 58%
Rainfall 0.91 in
Snow Depth Not available.
UV 0 out of 12
Pollen 11.10 out of 12
Air Quality Not available.
Flu Activity Regional
METAR KIKK 212335Z AUTO 29021G29KT 10SM SCT065 SCT080 OVC095 11/00 A2969 RMK AO2 T01101001

More Conditions Fewer Conditions

Pressure 29.69 in
Visibility 10.0 miles
Clouds Scattered Clouds 6500 ft
Scattered Clouds 8000 ft
Overcast 9500 ft
Dew Point 37 °F
Humidity 58%
Rainfall 0.91 in
Snow Depth Not available.
UV 0 out of 12
Pollen 11.10 out of 12
Air Quality Not available.
Flu Activity Regional
METAR KIKK 212335Z AUTO 29021G29KT 10SM SCT065 SCT080 OVC095 11/00 A2969 RMK AO2 T01101001

More Conditions Fewer Conditions

10-Day Weather Forecast

Almanac

Astronomy

Apr. 21, 2015 Rise Set
Actual Time
Civil Twilight
Nautical Twilight
Astronomical Twilight
Moon
Length of Visible Light
Length of Day
Tomorrow will be .
, % of the Moon is Illuminated

Today's Extremes

State Highs State Lows

Community

WunderPhotos

Upload Photos

1,815,583 photos uploaded!

WunderBlogs® & News

Nearby

Air Quality

  Air Quality AQ Index Pollutant
Not available.

Snow Depth

Station Depth Elevation

Earthquake Activity

City Distance Mag. Time & Date
Minimum magnitude displayed is 2.5.

Coastal Water Temperatures

Place Temperature

Stations

Nearby Weather Stations

Station Location Temp. Windchill Dew Point Humidity Wind Precip. Elev Updated Type
                   
Wind Advisory
Statement as of 3:10 PM CDT on April 21, 2015

... Wind Advisory remains in effect until 7 PM CDT /8 PM EDT/ this
evening...

* timing... through late this afternoon.

* Winds... 25 to 35 mph with gusts of 40 to 50 mph.

* Impacts... driving can become difficult... especially for north-
south oriented roads and high profile vehicles. Small tree
limbs are susceptible at wind gusts of this magnitude.

Precautionary/preparedness actions...

A Wind Advisory means that sustained winds of 30 mph or frequent
gusts of 45 mph or higher are expected. Winds this strong can
make driving difficult... especially for high profile vehicles.
Use extra caution.



Kjb